Latest Weather Observations for Mallacoota

IDV60801

Issued at 1:22 pm EDT Sunday 18 November 2018 (issued every 10 minutes, with the page automatically refreshed every 10 minutes)

About weather observations | Map of weather stations | Latest weather observations for VIC | Other Formats
Station Details ID: 084084 Name: MALLACOOTA Lat: -37.60 Lon: 149.73 Height: 22.0 m
Data from the previous 72 hours. | See also: Recent months at Mallacoota
Date/Time
EDT
Temp
°C
App
Temp
°C
Dew
Point
°C
Rel
Hum
%
Delta-T
°C
Wind Press
QNH
hPa
Press
MSL
hPa
Rain since
9am
mm
Dir  Spd
km/h
Gust
km/h
Spd
kts
Gust
kts
18/01:00pm 18.6 13.9 11.9 65 3.7 E 28 37 15 20 1024.3 1024.3 0.0
18/12:30pm 18.3 13.5 11.6 65 3.7 E 28 37 15 20 1024.6 1024.6 0.0
18/12:00pm 19.3 16.0 11.6 61 4.2 E 20 28 11 15 1025.1 1025.1 0.0
18/11:30am 19.2 16.2 12.0 63 4.0 E 19 24 10 13 1025.3 1025.3 0.0
18/11:00am 18.6 17.0 11.7 64 3.8 ESE 11 17 6 9 1025.5 1025.5 0.0
18/10:30am 17.8 15.8 11.4 66 3.5 ESE 13 17 7 9 1025.6 1025.6 0.0
18/10:00am 18.2 16.7 10.6 61 4.1 E 9 13 5 7 1025.5 1025.5 0.0
18/09:30am 17.7 16.1 10.1 61 4.0 ENE 9 13 5 7 1025.6 1025.6 0.0
18/09:00am 17.6 16.1 10.5 63 3.8 ENE 9 11 5 6 1025.5 1025.5 1.8
18/08:30am 16.8 15.6 10.2 65 3.5 NE 7 9 4 5 1025.4 1025.4 1.8
18/08:00am 14.2 12.6 10.2 77 2.1 NW 9 13 5 7 1025.3 1025.3 1.8
18/07:30am 12.7 10.7 10.1 84 1.3 NW 11 13 6 7 1025.3 1025.3 1.8
18/07:00am 10.5 8.5 8.8 89 0.8 WNW 9 13 5 7 1025.0 1025.0 1.8
18/06:30am 8.7 6.0 7.2 90 0.7 WNW 11 15 6 8 1024.6 1024.6 1.8
18/06:00am 7.8 4.9 6.3 90 0.7 WNW 11 15 6 8 1024.4 1024.4 1.8
18/05:30am 7.5 4.5 6.0 90 0.7 WNW 11 15 6 8 1024.1 1024.1 1.8
18/05:00am 7.8 4.5 6.3 90 0.7 NW 13 15 7 8 1023.8 1023.8 1.8
18/04:30am 8.1 4.8 6.4 89 0.8 WNW 13 15 7 8 1023.7 1023.7 1.8
18/04:00am 8.4 5.2 6.7 89 0.8 WNW 13 17 7 9 1023.7 1023.7 1.8
18/03:30am 9.0 5.5 7.3 89 0.8 WNW 15 17 8 9 1023.9 1023.9 1.8
18/03:00am 9.2 5.8 7.5 89 0.8 NW 15 17 8 9 1024.0 1024.0 1.8
18/02:30am 9.2 6.2 7.5 89 0.8 WNW 13 17 7 9 1024.4 1024.4 1.8
18/02:00am 9.3 6.3 7.6 89 0.8 WNW 13 17 7 9 1024.7 1024.7 1.8
18/01:30am 9.2 6.2 7.6 90 0.8 NW 13 17 7 9 1024.9 1024.9 1.8
18/01:00am 9.0 6.7 7.3 89 0.8 WNW 9 13 5 7 1025.2 1025.2 1.8
18/12:30am 9.4 6.8 7.7 89 0.8 WNW 11 13 6 7 1025.5 1025.5 1.8
18/12:00am 9.5 7.2 7.6 88 0.9 WNW 9 13 5 7 1025.6 1025.6 1.8
 
Date/Time
EDT
Temp
°C
App
Temp
°C
Dew
Point
°C
Rel
Hum
%
Delta-T
°C
Wind Press
QNH
hPa
Press
MSL
hPa
Rain since
9am
mm
Dir  Spd
km/h
Gust
km/h
Spd
kts
Gust
kts
17/11:30pm 9.6 7.3 7.5 87 1.0 WNW 9 11 5 6 1025.6 1025.6 1.8
17/11:00pm 9.9 8.1 7.8 87 1.0 WNW 7 9 4 5 1025.7 1025.7 1.8
17/10:30pm 10.4 8.3 8.2 86 1.1 W 9 11 5 6 1025.7 1025.7 1.8
17/10:00pm 10.6 9.4 8.0 84 1.3 WNW 4 7 2 4 1025.6 1025.6 1.8
17/09:30pm 11.4 10.7 8.4 82 1.5 WNW 2 6 1 3 1025.5 1025.5 1.8
17/09:00pm 12.1 10.9 8.2 77 1.9 W 4 7 2 4 1025.3 1025.3 1.8
17/08:30pm 13.0 12.6 8.1 72 2.4 CALM 0 6 0 3 1025.0 1025.0 1.8
17/08:00pm 14.8 14.1 8.7 67 3.1 ESE 2 9 1 5 1024.9 1024.9 1.8
17/07:30pm 15.9 14.3 8.9 63 3.6 ESE 7 11 4 6 1024.6 1024.6 1.8
17/07:00pm 16.9 15.4 9.3 61 3.9 ESE 7 9 4 5 1024.2 1024.2 1.8
17/06:30pm 17.1 14.7 8.5 57 4.4 SE 11 15 6 8 1023.8 1023.8 1.8
17/06:00pm 17.7 15.9 9.6 59 4.2 SE 9 15 5 8 1023.6 1023.6 1.8
17/05:30pm 17.5 14.9 9.2 58 4.3 SE 13 15 7 8 1023.4 1023.4 1.8
17/05:00pm 18.7 17.0 9.8 56 4.7 SE 9 15 5 8 1023.4 1023.4 1.8
17/04:30pm 17.6 16.4 10.2 62 3.9 ESE 7 13 4 7 1023.4 1023.4 1.8
17/04:00pm 17.0 14.8 10.8 67 3.3 S 13 17 7 9 1023.4 1023.4 1.8
17/03:30pm 16.4 13.7 11.8 74 2.5 S 17 19 9 10 1023.4 1023.4 1.8
17/03:00pm 16.7 14.4 11.8 73 2.7 S 15 20 8 11 1023.4 1023.4 1.8
17/02:30pm 16.5 14.5 11.4 72 2.8 S 13 15 7 8 1023.5 1023.5 1.8
17/02:00pm 16.9 15.8 12.0 73 2.7 S 9 13 5 7 1023.4 1023.4 1.8
17/01:30pm 16.9 16.1 13.0 78 2.2 SSE 9 15 5 8 1023.5 1023.5 1.8
17/01:00pm 16.8 16.1 14.3 85 1.4 SSW 11 15 6 8 1023.5 1023.5 1.8
17/12:30pm 15.2 13.4 13.2 88 1.1 SSW 15 22 8 12 1023.7 1023.7 1.8
17/12:00pm 15.2 13.7 13.1 87 1.2 S 13 20 7 11 1023.7 1023.7 1.8
17/11:30am 15.5 14.1 13.5 88 1.1 SSW 13 20 7 11 1023.6 1023.6 1.8
17/11:00am 14.9 13.4 13.1 89 1.0 SSW 13 24 7 13 1023.4 1023.4 1.8
17/10:30am 14.6 12.6 12.8 89 1.0 SSW 15 24 8 13 1023.2 1023.2 1.2
17/10:00am 14.7 12.7 12.6 87 1.1 SW 15 28 8 15 1022.9 1022.9 0.6
17/09:30am 14.8 12.2 11.9 83 1.6 SSW 17 28 9 15 1022.6 1022.6 0.0
17/09:00am 15.4 12.6 11.2 76 2.2 SW 17 30 9 16 1022.2 1022.2 0.2
17/08:30am 16.9 15.3 12.8 77 2.3 SW 13 22 7 12 1021.7 1021.7 0.2
17/08:00am 15.4 13.9 12.0 80 1.8 WSW 11 19 6 10 1021.4 1021.4 0.2
17/07:30am 15.3 12.5 11.5 78 2.0 WSW 17 30 9 16 1021.2 1021.2 0.2
17/07:00am 16.0 14.1 12.9 82 1.7 WSW 15 20 8 11 1020.7 1020.7 0.2
17/06:30am 14.8 13.6 12.8 88 1.1 WSW 11 19 6 10 1020.5 1020.5 0.2
17/06:00am 14.1 12.7 12.3 89 1.0 WSW 11 19 6 10 1020.1 1020.1 0.2
17/05:30am 13.8 12.8 12.2 90 0.9 W 9 15 5 8 1019.7 1019.7 0.2
17/05:00am 12.6 11.8 11.0 90 0.8 WSW 6 9 3 5 1019.3 1019.3 0.2
17/04:30am 12.1 11.1 10.3 89 0.9 N 6 7 3 4 1019.1 1019.1 0.2
17/04:00am 12.6 12.8 10.7 88 1.0 CALM 0 0 0 0 1019.0 1019.0 0.2
17/03:30am 13.6 14.1 11.7 88 1.0 CALM 0 0 0 0 1019.0 1019.0 0.2
17/03:00am 13.8 12.7 11.8 88 1.1 NNW 9 13 5 7 1019.0 1019.0 0.2
17/02:30am 14.1 13.0 12.1 88 1.1 NNW 9 11 5 6 1019.2 1019.2 0.2
17/02:00am 14.0 12.9 11.9 87 1.1 NNW 9 13 5 7 1019.4 1019.4 0.2
17/01:30am 14.1 12.8 11.3 83 1.5 NNW 9 11 5 6 1019.5 1019.5 0.2
17/01:00am 15.1 14.4 11.5 79 1.9 N 6 11 3 6 1019.7 1019.7 0.0
17/12:30am 14.8 13.9 11.4 80 1.8 N 7 11 4 6 1019.7 1019.7 0.0
17/12:00am 14.9 15.3 11.1 78 2.0 CALM 0 0 0 0 1019.9 1019.9 0.0
 
Date/Time
EDT
Temp
°C
App
Temp
°C
Dew
Point
°C
Rel
Hum
%
Delta-T
°C
Wind Press
QNH
hPa
Press
MSL
hPa
Rain since
9am
mm
Dir  Spd
km/h
Gust
km/h
Spd
kts
Gust
kts
16/11:30pm 15.0 15.3 11.0 77 2.1 CALM 0 0 0 0 1019.9 1019.9 0.0
16/11:00pm 15.1 14.2 10.5 74 2.4 N 6 7 3 4 1019.8 1019.8 0.0
16/10:30pm 15.1 15.2 10.1 72 2.6 CALM 0 0 0 0 1019.7 1019.7 0.0
16/10:00pm 15.4 14.3 10.0 70 2.8 NNW 6 7 3 4 1019.7 1019.7 0.0
16/09:30pm 15.7 14.4 9.8 68 3.1 N 7 11 4 6 1019.4 1019.4 0.0
16/09:00pm 16.5 14.9 10.1 66 3.4 NNE 9 15 5 8 1019.2 1019.2 0.0
16/08:30pm 16.8 14.0 10.0 64 3.6 NNE 15 19 8 10 1019.1 1019.1 0.0
16/08:00pm 17.0 14.3 10.4 65 3.5 NNE 15 22 8 12 1018.8 1018.8 0.0
16/07:30pm 17.3 14.1 10.0 62 3.9 NNE 17 26 9 14 1018.8 1018.8 0.0
16/07:00pm 17.5 15.2 10.6 64 3.7 NE 13 22 7 12 1018.5 1018.5 0.0
16/06:30pm 17.8 14.6 11.1 65 3.6 NE 19 28 10 15 1018.1 1018.1 0.0
16/06:00pm 17.8 13.7 11.4 66 3.5 ENE 24 32 13 17 1017.8 1017.8 0.0
16/05:30pm 18.1 14.3 11.2 64 3.7 ENE 22 30 12 16 1017.9 1017.9 0.0
16/05:00pm 18.1 14.4 11.4 65 3.6 ENE 22 32 12 17 1017.9 1017.9 0.0
16/04:30pm 18.2 14.1 11.3 64 3.8 ENE 24 35 13 19 1017.9 1017.9 0.0
16/04:00pm 18.5 14.7 11.3 63 3.9 ENE 22 37 12 20 1018.0 1018.0 0.0
16/03:30pm 18.3 13.5 11.6 65 3.7 ENE 28 37 15 20 1018.2 1018.2 0.0
16/03:00pm 18.5 13.5 11.1 62 4.0 ENE 28 39 15 21 1018.4 1018.4 0.0
16/02:30pm 18.6 14.1 11.4 63 3.9 ENE 26 37 14 20 1018.8 1018.8 0.0
16/02:00pm 18.7 14.6 11.3 62 4.0 ENE 24 35 13 19 1019.3 1019.3 0.0
16/01:30pm 18.7 14.8 10.8 60 4.3 ENE 22 33 12 18 1019.7 1019.7 0.0
16/01:00pm 18.6 14.6 11.9 65 3.7 ENE 24 33 13 18 1020.2 1020.2 0.0
16/12:30pm 17.5 13.1 10.4 63 3.8 ENE 24 32 13 17 1020.6 1020.6 0.0
16/12:00pm 17.7 13.4 10.6 63 3.8 ENE 24 32 13 17 1020.9 1020.9 0.0
16/11:30am 17.9 14.4 10.8 63 3.8 ENE 20 30 11 16 1021.1 1021.1 0.0
16/11:00am 17.4 13.7 8.0 54 4.8 ENE 17 22 9 12 1021.6 1021.6 0.0
16/10:30am 17.4 13.8 8.3 55 4.7 ENE 17 20 9 11 1022.0 1022.0 0.0
16/10:00am 17.2 13.9 9.6 61 4.0 ENE 17 22 9 12 1022.0 1022.0 0.0
16/09:30am 16.9 14.9 10.1 64 3.6 ENE 11 15 6 8 1021.8 1021.8 0.0
16/09:00am 16.1 14.5 10.2 68 3.1 NE 9 15 5 8 1022.0 1022.0 0.0
16/08:30am 15.1 13.5 10.3 73 2.5 NNW 9 11 5 6 1022.2 1022.2 0.0
16/08:00am 14.0 12.0 10.0 77 2.1 NNW 11 15 6 8 1022.4 1022.4 0.0
16/07:30am 13.5 12.3 10.3 81 1.7 NNW 7 9 4 5 1022.3 1022.3 0.0
16/07:00am 12.6 11.5 9.8 83 1.4 NW 6 7 3 4 1022.3 1022.3 0.0
16/06:30am 11.8 10.1 9.7 87 1.1 WNW 9 13 5 7 1022.4 1022.4 0.0
16/06:00am 10.7 8.3 8.8 88 0.9 WNW 11 13 6 7 1022.6 1022.6 0.0
16/05:30am 10.3 7.4 8.2 87 1.0 NW 13 17 7 9 1022.6 1022.6 0.0
16/05:00am 10.8 8.0 8.7 87 1.0 WNW 13 17 7 9 1022.6 1022.6 0.0
16/04:30am 10.8 8.4 8.7 87 1.0 WNW 11 15 6 8 1022.4 1022.4 0.0
16/04:00am 11.2 8.9 8.9 86 1.1 NW 11 15 6 8 1022.6 1022.6 0.0
16/03:30am 11.6 9.3 9.0 84 1.3 NW 11 17 6 9 1022.9 1022.9 0.0
16/03:00am 12.1 10.3 9.3 83 1.4 NW 9 11 5 6 1023.2 1023.2 0.0
16/02:30am 12.1 10.6 9.3 83 1.4 W 7 11 4 6 1023.6 1023.6 0.0
16/02:00am 12.0 10.2 9.4 84 1.3 WNW 9 13 5 7 1024.0 1024.0 0.0
16/01:30am 12.0 10.6 9.4 84 1.3 WNW 7 11 4 6 1024.0 1024.0 0.0
16/01:00am 11.7 9.8 9.1 84 1.3 WNW 9 13 5 7 1024.2 1024.2 0.0
16/12:30am 12.2 10.4 9.4 83 1.4 NW 9 13 5 7 1024.7 1024.7 0.0
16/12:00am 12.6 10.8 9.6 82 1.5 NW 9 13 5 7 1024.7 1024.7 0.0
 
Date/Time
EDT
Temp
°C
App
Temp
°C
Dew
Point
°C
Rel
Hum
%
Delta-T
°C
Wind Press
QNH
hPa
Press
MSL
hPa
Rain since
9am
mm
Dir  Spd
km/h
Gust
km/h
Spd
kts
Gust
kts
15/11:30pm 12.8 10.7 9.8 82 1.5 WNW 11 15 6 8 1024.9 1024.9 0.0
15/11:00pm 13.1 11.4 9.7 80 1.7 WNW 9 13 5 7 1024.8 1024.8 0.0
15/10:30pm 13.3 11.6 9.7 79 1.8 WNW 9 13 5 7 1024.9 1024.9 0.0
15/10:00pm 13.7 12.4 9.9 78 1.9 WNW 7 11 4 6 1024.9 1024.9 0.0
15/09:30pm 13.6 12.3 9.8 78 2.0 W 7 11 4 6 1024.8 1024.8 0.0
15/09:00pm 13.4 12.0 9.6 78 1.9 WNW 7 9 4 5 1024.5 1024.5 0.0
15/08:30pm 13.9 12.7 9.7 76 2.2 WSW 6 9 3 5 1024.1 1024.1 0.0
15/08:00pm 14.8 12.1 10.2 74 2.4 SSW 15 20 8 11 1023.8 1023.8 0.0
15/07:30pm 15.1 11.5 9.7 70 2.8 SSW 19 28 10 15 1023.4 1023.4 0.0
15/07:00pm 15.2 11.4 9.1 67 3.1 SSW 19 28 10 15 1023.4 1023.4 0.0
15/06:30pm 15.6 12.1 8.6 63 3.6 SSW 17 28 9 15 1023.3 1023.3 0.0
15/06:00pm 15.6 11.9 7.9 60 3.8 SW 17 33 9 18 1023.0 1023.0 0.0
15/05:30pm 15.3 11.3 6.8 57 4.2 SSW 17 26 9 14 1022.7 1022.7 0.0
15/05:00pm 16.1 10.5 7.1 55 4.4 SSW 26 37 14 20 1022.5 1022.5 0.0
15/04:30pm 15.4 11.1 7.2 58 4.0 SSW 19 30 10 16 1022.4 1022.4 0.0
15/04:00pm 16.2 11.0 7.4 56 4.4 SSW 24 41 13 22 1022.3 1022.3 0.0
15/03:30pm 15.6 10.1 7.4 58 4.1 SSW 26 41 14 22 1022.3 1022.3 0.0
15/03:00pm 16.6 10.7 7.3 54 4.6 SSW 28 44 15 24 1022.1 1022.1 0.0
15/02:30pm 17.8 12.8 8.1 53 5.0 SSW 24 43 13 23 1022.2 1022.2 0.0
15/02:10pm 17.2 11.2 7.0 51 5.1 SW 28 46 15 25 1022.1 1022.1 0.0
15/02:00pm 18.6 14.0 8.0 50 5.4 SSW 22 35 12 19 1022.1 1022.1 0.0
15/01:30pm 17.1 11.7 8.0 55 4.6 SW 26 43 14 23 1021.9 1021.9 0.0

Other Formats:

Comma delimited format used in spreadsheet applications
http://www.bom.gov.au/fwo/IDV60801/IDV60801.94935.axf

JavaScript Object Notation format (JSON) in row-major order
http://www.bom.gov.au/fwo/IDV60801/IDV60801.94935.json